createdAt,value
2023-02-15T00:01:13.378Z,2.56
2023-02-15T00:03:37.293Z,2.49
2023-02-15T00:06:01.151Z,2.44
2023-02-15T00:08:26.008Z,2.31
2023-02-15T00:10:49.866Z,2.29
2023-02-15T00:13:14.895Z,2.31
2023-02-15T00:15:38.614Z,2.33
2023-02-15T00:18:02.242Z,2.13
2023-02-15T00:20:25.921Z,2.06
2023-02-15T00:22:49.531Z,2.02
2023-02-15T00:25:13.165Z,1.93
2023-02-15T00:27:36.777Z,1.88
2023-02-15T00:30:02.130Z,1.82
2023-02-15T00:32:27.034Z,1.79
2023-02-15T00:34:50.729Z,1.75
2023-02-15T00:37:14.364Z,1.70
2023-02-15T00:39:38.070Z,1.65
2023-02-15T00:42:03.134Z,1.61
2023-02-15T00:44:26.925Z,1.57
2023-02-15T00:46:55.140Z,1.60
2023-02-15T00:49:18.934Z,1.46
2023-02-15T00:51:42.711Z,1.40
2023-02-15T00:54:06.527Z,1.39
2023-02-15T00:56:30.481Z,1.48
2023-02-15T00:58:54.219Z,1.34
2023-02-15T01:01:20.838Z,1.27
2023-02-15T01:03:47.606Z,1.21
2023-02-15T01:06:11.974Z,1.19
2023-02-15T01:08:36.099Z,1.12
2023-02-15T01:11:05.684Z,1.10
2023-02-15T01:13:29.434Z,1.03
2023-02-15T01:15:56.825Z,1.02
2023-02-15T01:18:20.873Z,0.98
2023-02-15T01:20:48.550Z,0.94
2023-02-15T01:23:12.348Z,0.91
2023-02-15T01:25:37.863Z,0.86
2023-02-15T01:28:01.578Z,0.80
2023-02-15T01:30:25.324Z,0.81
2023-02-15T01:32:49.064Z,0.76
2023-02-15T01:35:13.782Z,0.75
2023-02-15T01:37:39.159Z,0.72
2023-02-15T01:40:03.303Z,0.63
2023-02-15T01:42:27.734Z,0.53
2023-02-15T01:44:57.133Z,0.55
2023-02-15T01:49:57.192Z,0.54
2023-02-15T01:52:21.621Z,0.48
2023-02-15T01:54:50.405Z,0.42
2023-02-15T01:57:19.131Z,0.57
2023-02-15T01:59:48.836Z,0.41
2023-02-15T02:02:16.035Z,0.38
2023-02-15T02:04:47.581Z,0.36
2023-02-15T02:07:15.468Z,0.26
2023-02-15T02:09:39.561Z,0.33
2023-02-15T02:12:05.159Z,0.25
2023-02-15T02:14:29.178Z,0.26
2023-02-15T02:17:00.969Z,0.29
2023-02-15T02:20:05.585Z,0.18
2023-02-15T02:23:21.896Z,0.14
2023-02-15T02:26:43.745Z,0.09
2023-02-15T02:29:52.070Z,0.09
2023-02-15T02:33:00.039Z,-0.01
2023-02-15T02:35:31.142Z,-0.06
2023-02-15T02:38:06.649Z,-0.02
2023-02-15T02:40:45.750Z,0.09
2023-02-15T02:43:20.656Z,-0.08
2023-02-15T02:45:50.048Z,-0.07
2023-02-15T02:48:21.313Z,-0.09
2023-02-15T02:50:46.424Z,-0.02
2023-02-15T02:53:12.008Z,-0.09
2023-02-15T02:55:42.818Z,-0.11
2023-02-15T02:58:12.178Z,-0.17
2023-02-15T03:00:42.856Z,-0.20
2023-02-15T03:03:11.517Z,-0.26
2023-02-15T03:05:41.736Z,-0.20
2023-02-15T03:08:10.987Z,-0.21
2023-02-15T03:10:36.946Z,-0.23
2023-02-15T03:13:02.394Z,-0.14
2023-02-15T03:15:49.660Z,-0.12
2023-02-15T03:18:13.530Z,-0.28
2023-02-15T03:20:40.372Z,-0.27
2023-02-15T03:23:08.858Z,-0.33
2023-02-15T03:25:37.327Z,-0.36
2023-02-15T03:28:05.953Z,-0.42
2023-02-15T03:30:31.091Z,-0.37
2023-02-15T03:32:55.981Z,-0.40
2023-02-15T03:35:21.653Z,-0.39
2023-02-15T03:37:52.816Z,-0.34
2023-02-15T03:40:40.936Z,-0.29
2023-02-15T03:43:13.564Z,-0.41
2023-02-15T03:45:55.415Z,-0.38
2023-02-15T03:48:19.886Z,-0.39
2023-02-15T03:51:01.261Z,-0.43
2023-02-15T03:53:27.990Z,-0.50
2023-02-15T03:55:55.256Z,-0.40
2023-02-15T03:58:36.341Z,-0.36
2023-02-15T04:01:19.177Z,-0.39
2023-02-15T04:03:47.305Z,-0.52
2023-02-15T04:06:11.142Z,-0.52
2023-02-15T04:08:53.970Z,-0.54
2023-02-15T04:11:17.711Z,-0.49
2023-02-15T04:13:41.782Z,-0.45
2023-02-15T04:16:06.041Z,-0.51
2023-02-15T04:18:49.750Z,-0.54
2023-02-15T04:21:30.509Z,-0.54
2023-02-15T04:24:12.760Z,-0.59
2023-02-15T04:26:36.563Z,-0.66
2023-02-15T04:29:00.248Z,-0.58
2023-02-15T04:31:24.151Z,-0.55
2023-02-15T04:33:48.866Z,-0.59
2023-02-15T04:36:12.677Z,-0.62
2023-02-15T04:38:36.538Z,-0.52
2023-02-15T04:41:01.822Z,-0.65
2023-02-15T04:43:25.551Z,-0.62
2023-02-15T04:45:52.911Z,-0.69
2023-02-15T04:48:16.689Z,-0.66
2023-02-15T04:50:40.428Z,-0.69
2023-02-15T04:53:04.193Z,-0.75
2023-02-15T04:55:28.079Z,-0.78
2023-02-15T04:57:53.240Z,-0.68
2023-02-15T05:00:17.980Z,-0.63
2023-02-15T05:02:41.689Z,-0.67
2023-02-15T05:05:06.255Z,-0.84
2023-02-15T05:07:29.906Z,-0.88
2023-02-15T05:09:53.685Z,-0.85
2023-02-15T05:12:17.530Z,-0.88
2023-02-15T05:14:42.697Z,-0.87
2023-02-15T05:17:06.374Z,-0.90
2023-02-15T05:19:30.400Z,-0.90
2023-02-15T05:21:54.021Z,-0.84
2023-02-15T05:24:35.159Z,-0.81
2023-02-15T05:27:16.251Z,-0.78
2023-02-15T05:29:41.412Z,-0.78
2023-02-15T05:32:05.412Z,-0.86
2023-02-15T05:34:29.357Z,-0.90
2023-02-15T05:36:53.025Z,-1.01
2023-02-15T05:39:16.794Z,-0.91
2023-02-15T05:41:40.471Z,-0.90
2023-02-15T05:44:04.286Z,-0.98
2023-02-15T05:46:29.490Z,-1.01
2023-02-15T05:48:53.536Z,-0.94
2023-02-15T05:51:18.007Z,-0.98
2023-02-15T05:53:42.922Z,-0.94
2023-02-15T05:56:08.556Z,-1.03
2023-02-15T05:58:35.681Z,-1.03
2023-02-15T06:00:59.696Z,-0.93
2023-02-15T06:03:26.769Z,-0.87
2023-02-15T06:05:50.669Z,-0.94
2023-02-15T06:08:14.600Z,-0.93
2023-02-15T06:10:38.695Z,-1.00
2023-02-15T06:13:02.442Z,-1.11
2023-02-15T06:15:26.155Z,-1.01
2023-02-15T06:17:49.985Z,-0.97
2023-02-15T06:20:15.786Z,-0.94
2023-02-15T06:22:39.570Z,-1.00
2023-02-15T06:25:03.489Z,-1.03
2023-02-15T06:27:27.310Z,-0.98
2023-02-15T06:29:51.018Z,-1.04
2023-02-15T06:32:14.804Z,-1.16
2023-02-15T06:34:38.456Z,-1.18
2023-02-15T06:37:03.723Z,-1.21
2023-02-15T06:39:27.497Z,-1.22
2023-02-15T06:41:51.344Z,-1.04
2023-02-15T06:44:15.084Z,-1.16
2023-02-15T06:46:39.012Z,-1.15
2023-02-15T06:49:02.772Z,-1.12
2023-02-15T06:51:26.597Z,-1.09
2023-02-15T06:53:51.745Z,-1.12
2023-02-15T06:56:15.557Z,-0.98
2023-02-15T06:58:39.939Z,-0.95
2023-02-15T07:01:04.146Z,-1.02
2023-02-15T07:03:27.785Z,-0.87
2023-02-15T07:05:51.646Z,-0.74
2023-02-15T07:08:15.401Z,-0.73
2023-02-15T07:10:40.593Z,-0.75
2023-02-15T07:13:03.295Z,-0.71
2023-02-15T07:15:27.094Z,-0.60
2023-02-15T07:17:51.204Z,-0.38
2023-02-15T07:20:18.223Z,-0.34
2023-02-15T07:22:41.990Z,-0.22
2023-02-15T07:25:06.274Z,-0.08
2023-02-15T07:27:31.709Z,-0.05
2023-02-15T07:29:55.462Z,0.12
2023-02-15T07:32:19.150Z,0.02
2023-02-15T07:34:43.438Z,-0.11
2023-02-15T07:37:07.179Z,0.10
2023-02-15T07:39:30.904Z,0.19
2023-02-15T07:41:54.626Z,0.22
2023-02-15T07:44:19.941Z,0.21
2023-02-15T07:46:43.591Z,0.33
2023-02-15T07:49:07.243Z,0.34
2023-02-15T07:51:30.929Z,0.16
2023-02-15T07:53:54.579Z,0.30
2023-02-15T07:56:18.214Z,0.17
2023-02-15T07:58:54.942Z,0.45
2023-02-15T08:01:21.668Z,0.63
2023-02-15T08:03:45.537Z,0.62
2023-02-15T08:06:10.770Z,0.49
2023-02-15T08:08:36.707Z,0.78
2023-02-15T08:11:19.720Z,0.55
2023-02-15T08:13:54.679Z,0.55
2023-02-15T08:16:19.876Z,0.64
2023-02-15T08:18:43.507Z,0.65
2023-02-15T08:21:07.395Z,0.58
2023-02-15T08:23:31.142Z,0.87
2023-02-15T08:25:54.811Z,1.07
2023-02-15T08:28:18.456Z,1.30
2023-02-15T08:30:42.193Z,1.26
2023-02-15T08:33:07.295Z,1.27
2023-02-15T08:35:30.962Z,0.95
2023-02-15T08:37:54.591Z,0.91
2023-02-15T08:40:18.344Z,0.45
2023-02-15T08:42:41.944Z,0.78
2023-02-15T08:45:06.429Z,0.91
2023-02-15T08:47:30.244Z,1.24
2023-02-15T08:49:56.897Z,1.31
2023-02-15T08:52:21.029Z,1.40
2023-02-15T08:54:44.818Z,1.38
2023-02-15T08:57:09.139Z,1.36
2023-02-15T08:59:32.901Z,1.23
2023-02-15T09:01:57.335Z,1.47
2023-02-15T09:04:21.534Z,1.46
2023-02-15T09:06:49.008Z,1.18
2023-02-15T09:09:13.716Z,1.54
2023-02-15T09:11:40.212Z,1.84
2023-02-15T09:14:06.575Z,1.97
2023-02-15T09:16:33.362Z,2.09
2023-02-15T09:18:59.018Z,2.06
2023-02-15T09:21:25.535Z,2.18
2023-02-15T09:23:53.048Z,1.58
2023-02-15T09:26:18.935Z,1.08
2023-02-15T09:28:43.143Z,1.90
2023-02-15T09:31:12.649Z,1.87
2023-02-15T09:33:37.130Z,2.27
2023-02-15T09:36:00.764Z,2.26
2023-02-15T09:38:24.416Z,2.03
2023-02-15T09:41:04.096Z,2.05
2023-02-15T09:43:41.547Z,1.82
2023-02-15T09:46:31.810Z,1.81
2023-02-15T09:48:59.258Z,1.87
2023-02-15T09:51:47.616Z,2.42
2023-02-15T09:54:25.399Z,2.59
2023-02-15T09:56:58.356Z,2.57
2023-02-15T09:59:33.125Z,2.71
2023-02-15T10:02:17.273Z,3.09
2023-02-15T10:04:57.316Z,2.88
2023-02-15T10:07:40.407Z,3.00
2023-02-15T10:10:16.552Z,3.25
2023-02-15T10:13:00.036Z,3.34
2023-02-15T10:15:42.425Z,3.41
2023-02-15T10:18:31.344Z,3.57
2023-02-15T10:21:05.026Z,3.42
2023-02-15T10:24:02.906Z,4.04
2023-02-15T10:26:33.766Z,4.72
2023-02-15T10:29:07.073Z,4.39
2023-02-15T10:31:40.335Z,5.29
2023-02-15T10:34:20.065Z,6.29
2023-02-15T10:37:11.727Z,6.77
2023-02-15T10:39:48.750Z,6.89
2023-02-15T10:42:25.469Z,7.23
2023-02-15T10:45:05.431Z,7.55
2023-02-15T10:48:01.223Z,7.68
2023-02-15T10:50:43.239Z,7.02
2023-02-15T10:53:39.896Z,7.80
2023-02-15T10:56:14.770Z,6.72
2023-02-15T10:58:59.542Z,7.63
2023-02-15T11:01:33.967Z,7.93
2023-02-15T11:04:43.096Z,8.04
2023-02-15T11:07:17.937Z,8.54
2023-02-15T11:09:47.492Z,7.40
2023-02-15T11:12:16.883Z,8.14
2023-02-15T11:14:46.049Z,8.12
2023-02-15T11:17:16.619Z,8.93
2023-02-15T11:19:45.266Z,8.21
2023-02-15T11:22:12.310Z,8.50
2023-02-15T11:24:45.737Z,8.08
2023-02-15T11:27:22.806Z,8.35
2023-02-15T11:30:01.779Z,8.60
2023-02-15T11:32:32.591Z,8.47
2023-02-15T11:35:02.141Z,8.86
2023-02-15T11:37:32.359Z,9.16
2023-02-15T11:39:56.356Z,8.52
2023-02-15T11:42:24.488Z,9.13
2023-02-15T11:44:58.823Z,8.73
2023-02-15T11:47:22.559Z,8.75
2023-02-15T11:49:48.478Z,8.76
2023-02-15T11:52:17.319Z,8.39
2023-02-15T11:54:45.810Z,8.77
2023-02-15T11:57:19.183Z,8.97
2023-02-15T11:59:49.257Z,9.30
2023-02-15T12:02:19.879Z,9.17
2023-02-15T12:04:51.236Z,9.12
2023-02-15T12:07:23.685Z,8.88
2023-02-15T12:09:56.229Z,8.50
2023-02-15T12:12:25.203Z,7.81
2023-02-15T12:14:52.065Z,8.36
2023-02-15T12:17:16.331Z,8.31
2023-02-15T12:19:42.731Z,8.64
2023-02-15T12:22:10.796Z,8.70
2023-02-15T12:24:38.964Z,8.95
2023-02-15T12:27:06.487Z,8.77
2023-02-15T12:29:35.367Z,8.81
2023-02-15T12:32:00.425Z,8.66
2023-02-15T12:34:28.047Z,8.47
2023-02-15T12:36:58.866Z,8.41
2023-02-15T12:39:28.603Z,8.56
2023-02-15T12:42:04.490Z,8.41
2023-02-15T12:44:30.653Z,8.43
2023-02-15T12:47:04.746Z,8.63
2023-02-15T12:49:30.008Z,8.66
2023-02-15T12:51:56.069Z,8.31
2023-02-15T12:54:35.524Z,8.56
2023-02-15T12:56:59.691Z,8.63
2023-02-15T12:59:23.687Z,8.49
2023-02-15T13:01:47.481Z,8.46
2023-02-15T13:04:24.473Z,8.72
2023-02-15T13:06:53.108Z,8.82
2023-02-15T13:09:21.762Z,9.04
2023-02-15T13:11:49.043Z,8.87
2023-02-15T13:14:21.978Z,8.92
2023-02-15T13:16:48.588Z,8.98
2023-02-15T13:19:17.454Z,9.07
2023-02-15T13:21:46.243Z,9.04
2023-02-15T13:24:21.408Z,9.00
2023-02-15T13:26:48.300Z,8.65
2023-02-15T13:29:22.347Z,9.02
2023-02-15T13:31:46.847Z,9.13
2023-02-15T13:34:16.253Z,9.00
2023-02-15T13:36:51.863Z,9.07
2023-02-15T13:39:29.006Z,9.23
2023-02-15T13:42:03.272Z,9.16
2023-02-15T13:44:49.850Z,9.48
2023-02-15T13:47:24.045Z,9.40
2023-02-15T13:50:10.881Z,9.39
2023-02-15T13:52:44.201Z,8.92
2023-02-15T13:55:32.543Z,9.18
2023-02-15T13:58:29.159Z,9.20
2023-02-15T14:01:09.566Z,9.39
2023-02-15T14:04:20.071Z,8.90
2023-02-15T14:07:08.606Z,9.15
2023-02-15T14:09:48.647Z,9.20
2023-02-15T14:12:48.116Z,9.09
2023-02-15T14:15:26.934Z,9.16
2023-02-15T14:18:05.573Z,8.97
2023-02-15T14:20:42.077Z,9.08
2023-02-15T14:23:15.201Z,9.44
2023-02-15T14:25:45.660Z,9.36
2023-02-15T14:28:17.615Z,9.31
2023-02-15T14:30:47.563Z,9.11
2023-02-15T14:33:36.013Z,9.23
2023-02-15T14:36:01.822Z,9.44
2023-02-15T14:38:41.503Z,9.18
2023-02-15T14:41:08.834Z,9.08
2023-02-15T14:43:47.097Z,9.31
2023-02-15T14:46:24.188Z,9.22
2023-02-15T14:48:51.032Z,9.12
2023-02-15T14:52:02.334Z,9.35
2023-02-15T14:54:59.209Z,8.94
2023-02-15T14:57:35.406Z,9.22
2023-02-15T15:00:02.270Z,9.31
2023-02-15T15:02:32.496Z,9.46
2023-02-15T15:05:05.336Z,9.45
2023-02-15T15:07:31.206Z,9.57
2023-02-15T15:10:11.002Z,9.34
2023-02-15T15:12:42.563Z,9.19
2023-02-15T15:15:07.703Z,9.40
2023-02-15T15:18:04.661Z,9.42
2023-02-15T15:20:51.267Z,9.20
2023-02-15T15:23:46.846Z,9.29
2023-02-15T15:26:49.512Z,9.36
2023-02-15T15:29:14.211Z,9.31
2023-02-15T15:31:47.034Z,9.29
2023-02-15T15:35:03.055Z,9.23
2023-02-15T15:38:13.559Z,9.13
2023-02-15T15:41:20.039Z,9.17
2023-02-15T15:44:22.672Z,9.09
2023-02-15T15:47:03.458Z,9.07
2023-02-15T15:49:33.761Z,8.92
2023-02-15T15:51:57.511Z,8.93
2023-02-15T15:54:24.214Z,8.88
2023-02-15T15:56:51.512Z,8.78
2023-02-15T15:59:22.204Z,8.75
2023-02-15T16:01:47.829Z,8.66
2023-02-15T16:04:16.417Z,8.61
2023-02-15T16:06:43.104Z,8.54
2023-02-15T16:09:20.322Z,8.34
2023-02-15T16:11:44.807Z,8.25
2023-02-15T16:14:18.871Z,8.19
2023-02-15T16:16:43.312Z,8.07
2023-02-15T16:19:07.348Z,7.91
2023-02-15T16:21:35.583Z,7.77
2023-02-15T16:24:25.039Z,7.53
2023-02-15T16:27:20.478Z,7.49
2023-02-15T16:29:44.233Z,7.40
2023-02-15T16:32:19.487Z,7.13
2023-02-15T16:34:57.792Z,7.02
2023-02-15T16:37:25.740Z,6.95
2023-02-15T16:39:50.969Z,6.88
2023-02-15T16:42:18.251Z,6.72
2023-02-15T16:44:42.883Z,6.62
2023-02-15T16:47:06.872Z,6.45
2023-02-15T16:49:32.180Z,6.34
2023-02-15T16:52:01.084Z,6.23
2023-02-15T16:54:27.224Z,6.11
2023-02-15T16:56:54.764Z,5.92
2023-02-15T16:59:43.310Z,5.89
2023-02-15T17:02:31.980Z,5.87
2023-02-15T17:05:18.745Z,5.62
2023-02-15T17:07:43.889Z,5.43
2023-02-15T17:10:31.243Z,5.45
2023-02-15T17:12:59.470Z,5.36
2023-02-15T17:15:33.180Z,5.31
2023-02-15T17:18:01.089Z,5.27
2023-02-15T17:20:27.265Z,5.15
2023-02-15T17:22:51.901Z,4.96
2023-02-15T17:25:25.957Z,4.91
2023-02-15T17:27:55.881Z,4.93
2023-02-15T17:30:32.039Z,4.92
2023-02-15T17:32:58.805Z,4.80
2023-02-15T17:35:25.786Z,4.76
2023-02-15T17:37:51.302Z,4.66
2023-02-15T17:40:26.798Z,4.63
2023-02-15T17:42:50.972Z,4.53
2023-02-15T17:45:16.761Z,4.38
2023-02-15T17:47:41.352Z,4.41
2023-02-15T17:50:07.100Z,4.36
2023-02-15T17:52:32.731Z,4.25
2023-02-15T17:55:13.709Z,4.21
2023-02-15T17:57:38.731Z,4.08
2023-02-15T18:00:19.585Z,4.01
2023-02-15T18:03:02.831Z,4.03
2023-02-15T18:05:44.140Z,3.86
2023-02-15T18:08:30.196Z,3.83
2023-02-15T18:11:11.095Z,3.76
2023-02-15T18:13:34.795Z,3.84
2023-02-15T18:15:58.571Z,3.67
2023-02-15T18:18:24.317Z,3.60
2023-02-15T18:20:48.138Z,3.51
2023-02-15T18:23:15.662Z,3.52
2023-02-15T18:25:39.590Z,3.42
2023-02-15T18:28:03.350Z,3.36
2023-02-15T18:30:27.388Z,3.15
2023-02-15T18:32:54.641Z,3.23
2023-02-15T18:35:23.091Z,3.20
2023-02-15T18:37:47.526Z,3.16
2023-02-15T18:40:17.931Z,3.19
2023-02-15T18:42:46.960Z,3.11
2023-02-15T18:45:18.451Z,3.03
2023-02-15T18:47:42.204Z,3.01
2023-02-15T18:50:07.132Z,2.95
2023-02-15T18:52:37.751Z,2.93
2023-02-15T18:55:04.186Z,2.92
2023-02-15T18:57:29.462Z,2.87
2023-02-15T18:59:53.227Z,2.81
2023-02-15T19:02:18.862Z,2.81
2023-02-15T19:04:42.999Z,2.75
2023-02-15T19:07:07.084Z,2.80
2023-02-15T19:09:32.692Z,2.69
2023-02-15T19:11:57.636Z,2.61
2023-02-15T19:14:31.195Z,2.55
2023-02-15T19:16:55.634Z,2.54
2023-02-15T19:19:19.382Z,2.58
2023-02-15T19:21:43.387Z,2.49
2023-02-15T19:24:14.756Z,2.40
2023-02-15T19:26:45.877Z,2.37
2023-02-15T19:29:14.268Z,2.33
2023-02-15T19:31:38.122Z,2.38
2023-02-15T19:34:01.958Z,2.27
2023-02-15T19:36:25.641Z,2.36
2023-02-15T19:38:54.563Z,2.30
2023-02-15T19:41:25.336Z,2.19
2023-02-15T19:43:55.680Z,2.15
2023-02-15T19:46:20.336Z,2.19
2023-02-15T19:48:44.092Z,2.16
2023-02-15T19:51:07.869Z,2.24
2023-02-15T19:53:31.692Z,2.04
2023-02-15T19:55:55.972Z,2.10
2023-02-15T19:58:20.670Z,1.99
2023-02-15T20:00:46.518Z,1.97
2023-02-15T20:03:10.533Z,1.87
2023-02-15T20:05:38.493Z,1.83
2023-02-15T20:08:04.320Z,1.79
2023-02-15T20:10:31.368Z,1.72
2023-02-15T20:12:55.212Z,1.81
2023-02-15T20:15:22.933Z,1.87
2023-02-15T20:17:48.337Z,1.80
2023-02-15T20:20:14.372Z,1.74
2023-02-15T20:22:38.367Z,1.69
2023-02-15T20:25:02.481Z,1.65
2023-02-15T20:27:26.693Z,1.61
2023-02-15T20:29:50.738Z,1.51
2023-02-15T20:32:14.757Z,1.55
2023-02-15T20:34:40.571Z,1.61
2023-02-15T20:37:04.759Z,1.53
2023-02-15T20:39:29.156Z,1.50
2023-02-15T20:41:52.877Z,1.48
2023-02-15T20:44:23.978Z,1.40
2023-02-15T20:46:48.462Z,1.49
2023-02-15T20:49:12.852Z,1.27
2023-02-15T20:51:38.585Z,1.19
2023-02-15T20:54:02.453Z,1.27
2023-02-15T20:56:26.854Z,1.36
2023-02-15T20:58:53.870Z,1.25
2023-02-15T21:01:19.944Z,1.22
2023-02-15T21:03:43.807Z,1.26
2023-02-15T21:06:08.812Z,1.30
2023-02-15T21:08:34.636Z,1.17
2023-02-15T21:10:59.743Z,1.10
2023-02-15T21:13:27.836Z,1.07
2023-02-15T21:15:53.197Z,1.05
2023-02-15T21:18:21.371Z,1.11
2023-02-15T21:20:50.895Z,0.83
2023-02-15T21:23:18.258Z,0.89
2023-02-15T21:25:44.795Z,0.85
2023-02-15T21:28:11.767Z,0.85
2023-02-15T21:30:35.993Z,0.97
2023-02-15T21:32:59.736Z,0.89
2023-02-15T21:35:24.102Z,0.85
2023-02-15T21:37:51.142Z,0.85
2023-02-15T21:40:23.423Z,0.84
2023-02-15T21:43:05.949Z,0.86
2023-02-15T21:45:47.567Z,0.79
2023-02-15T21:48:11.248Z,0.79
2023-02-15T21:50:54.421Z,0.77
2023-02-15T21:53:24.014Z,0.78
2023-02-15T21:55:47.785Z,0.73
2023-02-15T21:58:21.150Z,0.72
2023-02-15T22:00:45.447Z,0.64
2023-02-15T22:03:09.157Z,0.60
2023-02-15T22:05:35.248Z,0.61
2023-02-15T22:07:59.094Z,0.46
2023-02-15T22:10:23.004Z,0.55
2023-02-15T22:12:47.271Z,0.54
2023-02-15T22:15:22.149Z,0.45
2023-02-15T22:17:46.146Z,0.40
2023-02-15T22:20:16.951Z,0.34
2023-02-15T22:22:40.703Z,0.27
2023-02-15T22:25:04.832Z,0.32
2023-02-15T22:27:31.692Z,0.25
2023-02-15T22:29:56.536Z,0.30
2023-02-15T22:32:24.558Z,0.24
2023-02-15T22:34:48.938Z,0.21
2023-02-15T22:37:12.679Z,0.17
2023-02-15T22:39:36.379Z,0.13
2023-02-15T22:42:00.163Z,0.12
2023-02-15T22:44:27.244Z,0.04
2023-02-15T22:46:51.167Z,0.11
2023-02-15T22:49:16.849Z,0.23
2023-02-15T22:51:40.766Z,0.11
2023-02-15T22:54:04.505Z,0.04
2023-02-15T22:56:37.358Z,-0.02
2023-02-15T22:59:05.597Z,-0.01
2023-02-15T23:01:33.274Z,0.03
2023-02-15T23:03:57.045Z,0.04
2023-02-15T23:06:22.290Z,0.07
2023-02-15T23:08:46.044Z,0.06
2023-02-15T23:11:13.327Z,-0.21
2023-02-15T23:13:37.370Z,-0.13
2023-02-15T23:16:04.586Z,-0.17
2023-02-15T23:18:32.171Z,-0.11
2023-02-15T23:20:59.245Z,-0.08
2023-02-15T23:23:33.279Z,-0.12
2023-02-15T23:25:57.435Z,-0.15
2023-02-15T23:28:27.356Z,-0.08
2023-02-15T23:30:51.444Z,-0.04
2023-02-15T23:33:15.431Z,-0.01
2023-02-15T23:35:39.664Z,-0.18
2023-02-15T23:38:03.325Z,-0.21
2023-02-15T23:40:46.209Z,-0.28
2023-02-15T23:43:20.936Z,-0.38
2023-02-15T23:45:44.733Z,-0.38
2023-02-15T23:48:31.453Z,-0.30
2023-02-15T23:50:55.142Z,-0.21
2023-02-15T23:53:18.874Z,-0.44
2023-02-15T23:55:46.070Z,-0.39
2023-02-15T23:58:18.475Z,-0.31
